Time;durP1;ratioP1;P1;durP2;ratioP2;P2;SDS_P1;SDS_P2;PMS_P1;PMS_P2;Temp;Humidity;BMP_temperature;BMP_pressure;BME280_temperature;BME280_humidity;BME280_pressure;Samples;Min_cycle;Max_cycle;Signal;HPM_P1;HPM_P2
2023/01/21 00:01:13;;;;;;;25.80;16.98;;;;;;;8.39;64.02;99122.22;5091483;28;20484;-82
2023/01/21 00:03:38;;;;;;;20.92;16.00;;;;;;;8.43;64.01;99120.88;5091629;28;20103;-81
2023/01/21 00:06:04;;;;;;;21.92;15.07;;;;;;;8.18;64.16;99049.19;5090158;28;20178;-81
2023/01/21 00:08:30;;;;;;;18.58;14.48;;;;;;;8.53;63.93;99114.41;5091379;28;20445;-82
2023/01/21 00:10:55;;;;;;;20.00;13.52;;;;;;;8.38;63.86;99092.47;5091182;28;20160;-82
2023/01/21 00:13:21;;;;;;;18.05;13.85;;;;;;;8.83;64.34;99170.59;5091433;28;20028;-81
2023/01/21 00:15:46;;;;;;;21.27;14.23;;;;;;;8.11;64.12;99062.19;5089959;28;20416;-82
2023/01/21 00:18:12;;;;;;;18.55;13.63;;;;;;;8.11;64.03;99058.72;5090005;28;20018;-82
2023/01/21 00:20:38;;;;;;;15.98;11.93;;;;;;;8.78;64.04;99182.66;5089795;28;20127;-82
2023/01/21 00:23:03;;;;;;;16.80;11.93;;;;;;;8.74;64.37;99203.25;5089779;28;20024;-82
2023/01/21 00:25:29;;;;;;;15.57;11.20;;;;;;;8.83;64.24;99204.81;5091151;28;20111;-81
2023/01/21 00:27:55;;;;;;;18.35;11.88;;;;;;;8.53;64.26;99153.88;5091090;28;20034;-82
2023/01/21 00:30:20;;;;;;;17.52;13.63;;;;;;;8.22;63.97;99093.38;5091598;28;20397;-82
2023/01/21 00:32:46;;;;;;;21.20;15.93;;;;;;;8.45;64.30;99114.47;5091618;28;20027;-83
2023/01/21 00:35:12;;;;;;;27.25;19.17;;;;;;;8.84;63.95;99181.94;5089893;28;20024;-81
2023/01/21 00:37:37;;;;;;;25.23;18.77;;;;;;;8.47;63.85;99120.38;5091340;28;20020;-82
2023/01/21 00:40:04;;;;;;;25.67;17.60;;;;;;;8.43;64.03;99118.25;5091186;28;20107;-83
2023/01/21 00:42:30;;;;;;;24.88;18.13;;;;;;;8.13;63.46;99077.78;5089835;28;20024;-82
2023/01/21 00:44:56;;;;;;;24.38;17.13;;;;;;;8.10;63.90;99078.94;5091135;28;20031;-83
2023/01/21 00:47:23;;;;;;;26.48;19.10;;;;;;;8.69;64.30;99197.69;5090841;28;20499;-82
2023/01/21 00:49:48;;;;;;;25.27;18.63;;;;;;;8.54;64.28;99181.81;5090984;28;20196;-82
2023/01/21 00:52:14;;;;;;;25.95;17.35;;;;;;;8.11;64.09;99112.13;5089749;28;20088;-82
2023/01/21 00:54:40;;;;;;;26.38;19.40;;;;;;;8.40;64.05;99151.00;5090976;28;20128;-81
2023/01/21 00:57:06;;;;;;;33.47;22.52;;;;;;;8.75;64.19;99190.91;5091191;28;20035;-83
2023/01/21 00:59:32;;;;;;;21.95;17.38;;;;;;;7.82;63.77;99062.03;5091107;28;20069;-82
2023/01/21 01:01:57;;;;;;;20.63;16.20;;;;;;;7.93;63.96;99067.72;5094483;28;20099;-81
2023/01/21 01:04:23;;;;;;;18.77;14.48;;;;;;;8.17;63.65;99127.22;5094599;28;20457;-82
2023/01/21 01:06:48;;;;;;;21.90;15.45;;;;;;;7.16;63.46;98968.72;5093349;28;20531;-81
2023/01/21 01:09:14;;;;;;;17.17;14.35;;;;;;;7.79;63.56;99065.00;5093226;28;20020;-82
2023/01/21 01:11:39;;;;;;;18.38;14.00;;;;;;;7.80;63.54;99085.84;5094452;28;20016;-81
2023/01/21 01:14:05;;;;;;;19.30;13.98;;;;;;;8.24;63.32;99162.38;5093220;28;20409;-84
2023/01/21 01:16:30;;;;;;;20.58;15.05;;;;;;;8.52;63.66;99225.91;5093030;28;20028;-82
2023/01/21 01:18:56;;;;;;;17.63;14.23;;;;;;;8.35;63.68;99203.31;5094243;28;20016;-84
2023/01/21 01:21:22;;;;;;;17.95;13.13;;;;;;;7.91;64.18;99131.97;5094237;28;20031;-83
2023/01/21 01:23:51;;;;;;;16.02;10.77;;;;;;;8.38;64.17;99196.88;5094397;28;20024;-83
2023/01/21 01:26:18;;;;;;;12.90;9.30;;;;;;;8.36;64.11;99210.19;5092974;28;20077;-81
2023/01/21 01:28:44;;;;;;;12.57;8.73;;;;;;;8.38;64.53;99205.59;5092802;28;20020;-84
2023/01/21 01:31:12;;;;;;;14.88;9.45;;;;;;;8.41;64.10;99205.25;5093947;28;20085;-82
2023/01/21 01:33:38;;;;;;;10.65;8.55;;;;;;;7.78;64.41;99127.25;5093898;28;20032;-82
2023/01/21 01:36:10;;;;;;;13.05;9.65;;;;;;;8.40;63.99;99206.22;5094062;28;20016;-82
2023/01/21 01:38:36;;;;;;;16.83;12.30;;;;;;;7.94;63.98;99127.19;5092778;28;20023;-84
2023/01/21 01:41:01;;;;;;;16.65;12.38;;;;;;;7.65;63.44;99127.78;5094016;28;20028;-83
2023/01/21 01:43:57;;;;;;;15.95;12.48;;;;;;;8.11;63.69;99159.47;5093884;28;20031;-82
2023/01/21 01:46:25;;;;;;;14.57;11.15;;;;;;;8.39;63.93;99209.84;5093752;28;20043;-83
2023/01/21 01:48:59;;;;;;;13.93;12.05;;;;;;;7.74;63.15;99117.25;5093574;28;20458;-82
2023/01/21 01:51:47;;;;;;;14.00;9.32;;;;;;;8.29;63.38;99193.44;5092500;28;20536;-84
2023/01/21 01:54:16;;;;;;;8.68;6.53;;;;;;;8.26;63.21;99202.50;5093714;28;20031;-83
2023/01/21 01:56:47;;;;;;;8.43;7.03;;;;;;;7.52;63.26;99103.84;5093878;28;20039;-83
2023/01/21 01:59:13;;;;;;;8.02;5.47;;;;;;;8.09;63.21;99200.88;5093740;28;20097;-83
2023/01/21 02:01:38;;;;;;;6.60;5.10;;;;;;;7.65;63.46;99127.78;5093375;28;20106;-82
2023/01/21 02:04:09;;;;;;;24.23;15.30;;;;;;;8.08;63.13;99188.72;5092032;28;20018;-83
2023/01/21 02:06:34;;;;;;;19.25;10.75;;;;;;;8.02;63.06;99194.69;5093138;28;20031;-83
2023/01/21 02:09:00;;;;;;;9.50;6.63;;;;;;;7.51;62.84;99104.84;5092994;28;20020;-82
2023/01/21 02:11:25;;;;;;;8.85;5.95;;;;;;;6.71;63.20;99006.06;5092452;28;20412;-83
2023/01/21 02:13:58;;;;;;;8.85;6.47;;;;;;;7.62;62.79;99128.13;5093246;28;20463;-81
2023/01/21 02:16:35;;;;;;;9.40;6.05;;;;;;;8.05;62.72;99189.06;5093292;28;20081;-83
2023/01/21 02:19:33;;;;;;;10.32;5.95;;;;;;;7.96;62.43;99184.84;5093496;28;20073;-82
2023/01/21 02:22:07;;;;;;;9.13;6.22;;;;;;;7.94;63.13;99179.75;5091084;28;20036;-82
2023/01/21 02:25:18;;;;;;;9.60;6.70;;;;;;;7.89;62.77;99178.63;5092997;28;20028;-83
2023/01/21 02:28:01;;;;;;;8.27;6.05;;;;;;;7.86;63.01;99177.16;5092923;28;20511;-83
2023/01/21 02:30:51;;;;;;;10.30;6.90;;;;;;;7.88;63.10;99171.72;5091865;28;20452;-82
2023/01/21 02:33:44;;;;;;;10.65;7.05;;;;;;;7.84;63.68;99176.50;5093201;28;20031;-83
2023/01/21 02:36:28;;;;;;;13.07;8.32;;;;;;;7.81;63.80;99179.47;5091493;28;20024;-81
2023/01/21 02:39:02;;;;;;;10.82;7.93;;;;;;;7.88;63.60;99184.88;5092697;28;20024;-83
2023/01/21 02:41:55;;;;;;;8.77;6.13;;;;;;;7.90;63.71;99177.63;5092797;28;20024;-82
2023/01/21 02:44:47;;;;;;;8.38;5.90;;;;;;;7.58;63.48;99120.75;5092937;28;20027;-82
2023/01/21 02:47:30;;;;;;;9.65;6.57;;;;;;;7.70;63.39;99121.19;5084096;28;20531;-83
2023/01/21 02:50:16;;;;;;;13.80;8.52;;;;;;;7.75;63.15;99132.03;5092482;28;20043;-83
2023/01/21 02:52:42;;;;;;;18.38;9.65;;;;;;;7.38;63.40;99077.44;5092522;28;20024;-82
2023/01/21 02:55:14;;;;;;;16.40;9.32;;;;;;;7.80;62.78;99137.59;5092500;28;20401;-82
2023/01/21 02:57:51;;;;;;;11.93;7.90;;;;;;;7.29;63.29;99061.72;5091314;28;20417;-82
2023/01/21 03:00:19;;;;;;;11.68;7.80;;;;;;;8.05;63.04;99183.81;5092553;28;20492;-82
2023/01/21 03:03:11;;;;;;;12.65;8.40;;;;;;;7.97;63.46;99181.22;5091007;28;20436;-83
2023/01/21 03:05:48;;;;;;;16.85;9.30;;;;;;;7.91;63.46;99180.09;5092155;28;20512;-83
2023/01/21 03:08:37;;;;;;;15.88;9.70;;;;;;;7.63;63.25;99126.31;5092177;28;20106;-83
2023/01/21 03:11:10;;;;;;;13.48;8.00;;;;;;;7.52;63.59;99095.97;5090769;28;20020;-83
2023/01/21 03:17:10;;;;;;;11.38;8.05;;;;;;;7.59;64.06;99123.22;5092468;28;20420;-82
2023/01/21 03:19:38;;;;;;;11.35;7.82;;;;;;;7.87;63.89;99162.19;5091962;28;20048;-82
2023/01/21 03:22:13;;;;;;;16.30;8.63;;;;;;;7.67;64.48;99138.13;5090778;28;20027;-83
2023/01/21 03:24:42;;;;;;;17.80;8.55;;;;;;;7.51;64.11;99152.13;5091915;28;20024;-82
2023/01/21 03:27:12;;;;;;;13.43;6.25;;;;;;;7.57;64.54;99145.38;5091968;28;20024;-82
2023/01/21 03:29:41;;;;;;;13.88;6.68;;;;;;;7.87;64.46;99178.78;5090512;28;20088;-82
2023/01/21 03:32:11;;;;;;;16.13;6.00;;;;;;;7.43;64.99;99115.38;5091943;28;20481;-84
2023/01/21 03:34:43;;;;;;;19.55;7.05;;;;;;;7.93;64.27;99237.75;5090544;28;20083;-83
2023/01/21 03:37:08;;;;;;;;;;;;;;;7.74;64.71;99170.63;5090878;28;20038;-81
2023/01/21 03:39:43;;;;;;;19.38;7.63;;;;;;;7.77;64.68;99159.78;5091824;28;19915;-84
2023/01/21 03:42:09;;;;;;;16.25;6.22;;;;;;;7.08;64.48;99055.38;5090460;28;20028;-82
2023/01/21 03:44:36;;;;;;;16.00;6.45;;;;;;;7.40;64.35;99115.69;5091563;28;20098;-83
2023/01/21 03:47:25;;;;;;;13.10;6.85;;;;;;;7.76;64.44;99179.16;5090419;28;20024;-81
2023/01/21 03:49:59;;;;;;;13.52;5.80;;;;;;;7.71;64.90;99173.59;5089073;28;20416;-81
2023/01/21 03:52:26;;;;;;;16.35;6.40;;;;;;;7.30;64.84;99115.06;5091748;28;20028;-83
2023/01/21 03:54:52;;;;;;;11.02;5.57;;;;;;;7.62;64.85;99148.31;5092033;28;20558;-83
2023/01/21 03:57:17;;;;;;;8.48;5.40;;;;;;;6.95;64.78;99056.72;5090782;28;20070;-82
2023/01/21 03:59:43;;;;;;;6.53;5.10;;;;;;;7.14;64.57;99120.34;5092283;28;20488;-83
2023/01/21 04:02:09;;;;;;;7.50;5.65;;;;;;;6.78;64.65;99028.84;5090396;28;20028;-82
2023/01/21 04:04:34;;;;;;;7.20;5.25;;;;;;;7.18;65.03;99092.75;5091762;28;20020;-83
2023/01/21 04:07:00;;;;;;;10.73;5.82;;;;;;;7.56;64.93;99151.63;5091786;28;20031;-81
2023/01/21 04:09:25;;;;;;;11.27;5.93;;;;;;;6.14;64.55;98932.69;5091140;28;20534;-83
2023/01/21 04:11:51;;;;;;;8.13;5.80;;;;;;;5.69;64.51;98871.06;5091380;28;20025;-81
2023/01/21 04:14:16;;;;;;;10.55;6.15;;;;;;;6.84;64.89;99056.25;5091180;28;20020;-83
2023/01/21 04:16:41;;;;;;;11.73;5.65;;;;;;;7.31;64.94;99128.00;5091403;28;20389;-81
2023/01/21 04:19:07;;;;;;;12.10;6.25;;;;;;;7.25;64.93;99119.97;5091272;28;20024;-82
2023/01/21 04:21:33;;;;;;;9.50;5.35;;;;;;;7.28;65.18;99151.16;5091317;28;20027;-83
2023/01/21 04:23:58;;;;;;;9.20;5.32;;;;;;;6.92;65.58;99078.03;5089872;28;20028;-82
2023/01/21 04:26:23;;;;;;;8.65;5.22;;;;;;;6.71;65.08;99064.59;5090021;28;20020;-83
2023/01/21 04:28:49;;;;;;;8.98;4.55;;;;;;;6.72;65.54;99065.44;5091469;28;20404;-81
2023/01/21 04:31:14;;;;;;;8.52;5.10;;;;;;;7.20;65.18;99165.13;5091309;28;20103;-83
2023/01/21 04:33:40;;;;;;;9.15;5.13;;;;;;;7.06;65.24;99157.09;5089874;28;20024;-81
2023/01/21 04:36:06;;;;;;;10.70;5.65;;;;;;;7.30;65.26;99181.53;5094079;28;20028;-84
2023/01/21 04:38:31;;;;;;;9.18;5.40;;;;;;;7.04;64.85;99148.56;5095092;28;20061;-82
2023/01/21 04:40:56;;;;;;;17.00;7.60;;;;;;;6.56;65.12;99061.81;5095026;28;20417;-83
2023/01/21 04:43:22;;;;;;;14.70;7.20;;;;;;;7.31;65.11;99206.78;5095197;28;20027;-82
2023/01/21 04:45:48;;;;;;;13.75;5.93;;;;;;;7.43;64.85;99222.22;5093695;28;20165;-82
2023/01/21 04:48:15;;;;;;;8.02;5.40;;;;;;;7.49;65.46;99209.28;5093586;28;20027;-83
2023/01/21 04:50:40;;;;;;;14.73;5.97;;;;;;;6.73;64.95;99088.06;5095110;28;20043;-82
2023/01/21 04:53:05;;;;;;;10.13;5.70;;;;;;;6.44;65.04;99046.56;5094758;28;20481;-83
2023/01/21 04:55:31;;;;;;;17.02;7.63;;;;;;;7.36;64.56;99189.72;5094747;28;20070;-83
2023/01/21 04:57:56;;;;;;;15.25;6.90;;;;;;;7.50;64.85;99228.47;5094631;28;20103;-83
2023/01/21 05:00:22;;;;;;;11.82;6.22;;;;;;;6.48;64.66;99074.91;5093335;28;20115;-83
2023/01/21 05:02:47;;;;;;;14.40;6.65;;;;;;;7.04;65.52;99172.19;5093364;28;20027;-83
2023/01/21 05:05:13;;;;;;;15.02;6.55;;;;;;;7.21;64.93;99218.44;5094706;28;20028;-84
2023/01/21 05:07:38;;;;;;;14.05;7.43;;;;;;;6.67;65.09;99097.38;5094634;28;20032;-81
2023/01/21 05:10:04;;;;;;;12.57;6.72;;;;;;;7.47;65.03;99234.06;5094480;28;20034;-83
2023/01/21 05:12:29;;;;;;;9.60;6.80;;;;;;;7.16;65.04;99197.13;5094623;28;20111;-81
2023/01/21 05:14:57;;;;;;;17.27;8.45;;;;;;;7.17;65.36;99202.22;5093261;28;20032;-83
2023/01/21 05:17:23;;;;;;;10.32;7.50;;;;;;;7.46;65.37;99232.41;5094340;28;20089;-81
2023/01/21 05:19:52;;;;;;;13.73;8.57;;;;;;;6.62;65.16;99103.13;5092883;28;20421;-81
2023/01/21 05:22:18;;;;;;;26.77;14.65;;;;;;;7.22;65.04;99201.72;5094192;28;20024;-81
2023/01/21 05:24:43;;;;;;;24.40;12.77;;;;;;;7.07;64.79;99163.97;5093968;28;20051;-83
2023/01/21 05:27:09;;;;;;;20.05;12.60;;;;;;;7.12;64.93;99174.81;5094358;28;20024;-81
2023/01/21 05:29:34;;;;;;;25.38;11.93;;;;;;;6.50;65.11;99074.75;5094426;28;20411;-82
2023/01/21 05:31:59;;;;;;;20.48;11.50;;;;;;;6.71;65.20;99111.00;5094123;28;20551;-81
2023/01/21 05:34:25;;;;;;;16.48;10.45;;;;;;;6.85;65.26;99142.66;5094153;28;20544;-83
2023/01/21 05:36:50;;;;;;;14.55;8.82;;;;;;;7.50;64.51;99239.81;5092576;28;20020;-81
2023/01/21 05:39:16;;;;;;;21.13;10.10;;;;;;;6.94;65.14;99132.97;5093695;28;20024;-83
2023/01/21 05:41:41;;;;;;;18.77;9.20;;;;;;;6.91;64.72;99122.81;5094051;28;20019;-83
2023/01/21 05:44:08;;;;;;;19.17;9.55;;;;;;;6.78;65.05;99127.75;5092916;28;20024;-83
2023/01/21 05:46:33;;;;;;;14.25;7.70;;;;;;;6.98;65.13;99171.03;5092628;28;20489;-82
2023/01/21 05:48:59;;;;;;;13.35;6.63;;;;;;;6.91;65.26;99149.88;5093981;28;20088;-83
2023/01/21 05:51:24;;;;;;;13.65;8.35;;;;;;;7.71;65.00;99252.41;5092424;28;20031;-83
2023/01/21 05:53:50;;;;;;;13.55;8.10;;;;;;;6.95;65.39;99145.94;5093606;28;20389;-83
2023/01/21 05:56:15;;;;;;;14.63;8.02;;;;;;;6.73;65.46;99090.69;5092379;28;20104;-83
2023/01/21 05:58:40;;;;;;;16.58;8.80;;;;;;;7.36;64.97;99206.28;5093565;28;20095;-81
2023/01/21 06:01:06;;;;;;;18.80;9.32;;;;;;;6.28;64.87;99045.56;5092299;28;20114;-82
2023/01/21 06:03:31;;;;;;;13.48;7.85;;;;;;;6.20;64.67;99026.38;5093504;28;20027;-81
2023/01/21 06:05:57;;;;;;;16.85;8.25;;;;;;;7.61;65.16;99285.94;5092027;28;20516;-83
2023/01/21 06:08:22;;;;;;;16.52;9.07;;;;;;;5.52;65.00;98940.94;5091815;28;20024;-81
2023/01/21 06:10:47;;;;;;;17.73;10.95;;;;;;;7.54;64.91;99287.56;5091869;28;20020;-82
2023/01/21 06:13:14;;;;;;;14.77;10.55;;;;;;;7.54;64.83;99277.88;5093547;28;20459;-83
2023/01/21 06:15:40;;;;;;;22.88;16.17;;;;;;;6.93;64.94;99189.09;5093267;28;20492;-82
2023/01/21 06:18:06;;;;;;;26.75;16.63;;;;;;;7.48;65.02;99283.81;5093164;28;20024;-83
2023/01/21 06:20:32;;;;;;;26.25;16.20;;;;;;;6.83;64.78;99199.72;5091748;28;20520;-81
2023/01/21 06:22:59;;;;;;;21.25;16.85;;;;;;;6.79;64.78;99205.47;5093153;28;20031;-83
2023/01/21 06:25:25;;;;;;;22.58;15.68;;;;;;;6.69;64.74;99184.63;5093178;28;20024;-83
2023/01/21 06:27:54;;;;;;;23.70;15.88;;;;;;;6.73;64.60;99190.38;5091729;28;20088;-81
2023/01/21 06:30:19;;;;;;;24.13;14.43;;;;;;;6.82;64.75;99190.22;5092885;28;20514;-81
2023/01/21 06:32:45;;;;;;;18.95;12.43;;;;;;;7.20;65.28;99257.00;5091659;28;20024;-82
2023/01/21 06:35:10;;;;;;;19.13;13.38;;;;;;;7.11;64.97;99228.28;5091596;28;20035;-81
2023/01/21 06:37:36;;;;;;;24.13;14.93;;;;;;;7.09;64.89;99215.34;5092640;28;20031;-83
2023/01/21 06:40:01;;;;;;;18.45;12.73;;;;;;;6.78;65.32;99211.69;5091304;28;20024;-82
2023/01/21 06:42:26;;;;;;;18.02;13.02;;;;;;;6.77;65.59;99168.06;5092886;28;20103;-83
2023/01/21 06:44:52;;;;;;;18.25;12.63;;;;;;;7.37;65.41;99289.34;5091916;28;20020;-81
2023/01/21 06:47:17;;;;;;;16.65;11.32;;;;;;;7.33;65.22;99246.03;5091116;28;20020;-82
2023/01/21 06:49:43;;;;;;;20.63;11.15;;;;;;;6.97;64.65;99193.03;5092262;28;20027;-82
2023/01/21 06:52:08;;;;;;;17.52;11.68;;;;;;;7.78;64.92;99308.59;5092321;28;20118;-82
2023/01/21 06:54:34;;;;;;;24.67;12.52;;;;;;;7.45;65.43;99252.63;5092465;28;20036;-84
2023/01/21 06:56:59;;;;;;;19.63;11.63;;;;;;;7.93;65.10;99317.44;5091029;28;20115;-81
2023/01/21 06:59:24;;;;;;;15.20;10.27;;;;;;;5.95;65.10;99020.31;5090404;28;20485;-81
2023/01/21 07:01:50;;;;;;;21.13;9.57;;;;;;;7.26;65.20;99189.91;5090996;28;20076;-80
2023/01/21 07:04:15;;;;;;;16.52;8.75;;;;;;;7.68;65.27;99257.19;5091008;28;20028;-81
2023/01/21 07:06:41;;;;;;;18.23;9.85;;;;;;;7.38;65.41;99208.75;5092026;28;20412;-80
2023/01/21 07:09:07;;;;;;;14.35;10.77;;;;;;;7.47;65.00;99200.72;5090862;28;20024;-81
2023/01/21 07:11:33;;;;;;;13.52;8.65;;;;;;;7.55;65.17;99205.16;5090685;28;20028;-81
2023/01/21 07:13:59;;;;;;;16.70;8.73;;;;;;;7.87;64.90;99252.38;5087427;28;20031;-81
2023/01/21 07:16:25;;;;;;;14.07;8.93;;;;;;;7.95;65.36;99243.66;5076001;28;20019;-80
2023/01/21 07:18:50;;;;;;;14.05;8.15;;;;;;;8.38;65.73;99316.06;5091858;28;20081;-81
2023/01/21 07:21:15;;;;;;;17.35;8.40;;;;;;;7.70;64.94;99200.03;5090691;28;20450;-80
2023/01/21 07:23:41;;;;;;;16.33;9.20;;;;;;;7.68;65.84;99186.25;5087247;28;20481;-80
2023/01/21 07:26:07;;;;;;;17.75;8.88;;;;;;;8.40;65.65;99321.16;5070834;28;20051;-80
2023/01/21 07:28:32;;;;;;;16.73;8.40;;;;;;;6.74;65.58;99053.78;5069547;28;20082;-79
2023/01/21 07:30:58;;;;;;;13.15;6.78;;;;;;;8.25;65.29;99294.72;5083568;28;20298;-78
2023/01/21 07:33:24;;;;;;;12.48;7.75;;;;;;;7.64;65.47;99191.00;5088835;28;20503;-79
2023/01/21 07:35:50;;;;;;;17.42;9.73;;;;;;;8.06;65.68;99256.44;5088173;28;20084;-79
2023/01/21 07:38:15;;;;;;;14.77;9.77;;;;;;;8.35;65.63;99270.88;5082651;28;20084;-79
2023/01/21 07:40:40;;;;;;;15.85;10.20;;;;;;;8.10;66.38;99247.22;5089177;28;20029;-79
2023/01/21 07:43:07;;;;;;;18.40;12.23;;;;;;;8.60;66.71;99323.22;5091744;28;20462;-79
2023/01/21 07:45:33;;;;;;;20.02;13.95;;;;;;;7.77;66.33;99199.19;5089051;28;20440;-79
2023/01/21 07:47:58;;;;;;;19.80;10.88;;;;;;;8.31;66.41;99273.00;5091110;28;20038;-79
2023/01/21 07:50:24;;;;;;;29.80;20.08;;;;;;;8.75;66.97;99318.06;5090831;28;20032;-77
2023/01/21 07:52:52;;;;;;;16.95;11.23;;;;;;;8.56;66.87;99253.50;5088618;28;20027;-80
2023/01/21 07:55:17;;;;;;;16.98;11.25;;;;;;;8.35;66.65;99205.13;5086194;28;20032;-79
2023/01/21 07:57:43;;;;;;;10.32;5.13;;;;;;;8.25;66.98;99185.06;5089468;28;20106;-80
2023/01/21 08:00:09;;;;;;;7.70;5.35;;;;;;;8.34;67.12;99211.38;5091175;28;20043;-83
2023/01/21 08:02:35;;;;;;;11.25;4.85;;;;;;;8.84;67.21;99279.34;5092006;28;20024;-82
2023/01/21 08:05:00;;;;;;;8.95;5.50;;;;;;;8.90;67.02;99284.75;5091574;28;20024;-80
2023/01/21 08:07:25;;;;;;;9.15;4.90;;;;;;;8.95;67.25;99275.53;5090511;28;20032;-80
2023/01/21 08:09:51;;;;;;;10.85;5.13;;;;;;;8.16;67.32;99146.63;5092544;28;20032;-80
2023/01/21 08:12:16;;;;;;;9.45;4.32;;;;;;;9.10;67.18;99282.50;5106812;28;20028;-81
2023/01/21 08:14:41;;;;;;;8.95;3.78;;;;;;;7.69;67.15;99056.50;5095423;28;20524;-80
2023/01/21 08:17:07;;;;;;;9.20;3.45;;;;;;;8.89;67.26;99264.69;5095245;28;20050;-80
2023/01/21 08:19:32;;;;;;;10.90;3.55;;;;;;;8.96;67.17;99264.00;5095401;28;20452;-81
2023/01/21 08:21:58;;;;;;;9.38;3.95;;;;;;;8.70;67.30;99215.09;5094274;28;20023;-81
2023/01/21 08:24:23;;;;;;;7.57;4.15;;;;;;;8.67;67.06;99215.47;5094973;28;20024;-81
2023/01/21 08:26:48;;;;;;;8.20;4.30;;;;;;;9.19;67.15;99270.09;5109813;28;20031;-81
2023/01/21 08:29:14;;;;;;;8.15;4.60;;;;;;;9.60;66.92;99310.13;5095390;28;20121;-81
2023/01/21 08:31:39;;;;;;;10.07;4.97;;;;;;;8.89;66.99;99175.16;5093998;28;20023;-81
2023/01/21 08:34:05;;;;;;;10.57;4.80;;;;;;;8.38;67.38;99091.66;5095336;28;20031;-81
2023/01/21 08:36:30;;;;;;;10.25;5.40;;;;;;;9.46;66.88;99260.84;5095352;28;20027;-81
2023/01/21 08:39:04;;;;;;;7.72;4.78;;;;;;;9.13;66.59;99186.53;5110946;28;20409;-81
2023/01/21 08:41:30;;;;;;;12.43;6.15;;;;;;;9.84;66.74;99309.13;5095100;28;20024;-80
2023/01/21 08:43:55;;;;;;;11.85;5.70;;;;;;;9.19;66.72;99183.19;5093807;28;20024;-81
2023/01/21 08:46:21;;;;;;;22.02;8.95;;;;;;;9.45;66.83;99233.66;5103361;28;20071;-81
2023/01/21 08:48:46;;;;;;;12.98;6.88;;;;;;;9.53;66.92;99252.03;5074603;28;20025;-80
2023/01/21 08:51:11;;;;;;;10.32;5.65;;;;;;;9.27;66.93;99237.59;5074835;28;20028;-80
2023/01/21 08:53:37;;;;;;;9.38;5.60;;;;;;;9.60;66.95;99246.88;5090837;28;20077;-80
2023/01/21 08:56:04;;;;;;;9.63;5.25;;;;;;;10.01;66.76;99289.50;5094643;28;20424;-80
2023/01/21 08:58:30;;;;;;;10.45;5.45;;;;;;;10.07;66.59;99285.31;5094557;28;20028;-81
2023/01/21 09:00:56;;;;;;;12.50;6.30;;;;;;;9.96;66.68;99275.22;5093034;28;20031;-80
2023/01/21 09:03:22;;;;;;;8.93;4.75;;;;;;;9.62;67.03;99247.50;5094322;28;20024;-80
2023/01/21 09:05:50;;;;;;;9.25;4.22;;;;;;;9.96;67.79;99278.69;5094672;28;20039;-80
2023/01/21 09:08:16;;;;;;;8.85;6.07;;;;;;;9.75;67.28;99239.00;5095453;28;20032;-81
2023/01/21 09:10:59;;;;;;;11.02;5.50;;;;;;;9.70;67.61;99220.28;5074300;28;20017;-80
2023/01/21 09:13:26;;;;;;;12.80;6.45;;;;;;;9.33;67.57;99161.31;5090951;28;20031;-80
2023/01/21 09:15:52;;;;;;;20.75;8.88;;;;;;;9.90;67.68;99246.94;5088369;28;20408;-80
2023/01/21 09:18:17;;;;;;;29.75;16.88;;;;;;;9.58;67.73;99180.34;5091816;28;20024;-80
2023/01/21 09:20:42;;;;;;;17.85;10.27;;;;;;;9.47;67.63;99133.34;5091836;28;20044;-81
2023/01/21 09:23:23;;;;;;;21.70;12.52;;;;;;;9.83;67.62;99181.75;5087943;28;20020;-81
2023/01/21 09:25:53;;;;;;;15.50;7.85;;;;;;;10.73;68.00;99276.50;5088890;28;20393;-82
2023/01/21 09:28:20;;;;;;;13.88;8.10;;;;;;;10.87;67.84;99258.97;5094613;28;20024;-82
2023/01/21 09:30:46;;;;;;;20.00;10.50;;;;;;;10.51;67.34;99193.00;5112667;28;20558;-82
2023/01/21 09:33:13;;;;;;;14.18;8.27;;;;;;;11.03;68.31;99260.56;5095758;28;20106;-82
2023/01/21 09:35:38;;;;;;;11.13;5.88;;;;;;;10.94;67.80;99224.72;5093567;28;20105;-82
2023/01/21 09:38:03;;;;;;;12.10;7.20;;;;;;;10.67;68.13;99178.75;5092707;28;20066;-81
2023/01/21 09:40:29;;;;;;;16.70;8.40;;;;;;;10.55;67.78;99143.28;5089226;28;20032;-81
2023/01/21 09:42:54;;;;;;;14.82;7.15;;;;;;;11.31;67.88;99268.59;5092732;28;20031;-80
2023/01/21 09:45:21;;;;;;;12.85;5.80;;;;;;;10.44;68.06;99124.28;5092643;28;20089;-81
2023/01/21 09:47:49;;;;;;;9.80;4.90;;;;;;;10.70;68.83;99173.09;5097830;28;20488;-81
2023/01/21 09:50:15;;;;;;;9.10;4.22;;;;;;;11.44;69.57;99268.72;5092120;28;20501;-79
2023/01/21 09:52:46;;;;;;;10.52;3.63;;;;;;;11.27;68.99;99220.59;5093525;28;20032;-80
2023/01/21 09:55:33;;;;;;;8.23;4.13;;;;;;;11.48;68.73;99248.00;5090125;28;20055;-80
2023/01/21 09:58:07;;;;;;;12.45;6.18;;;;;;;11.52;69.50;99249.25;5090186;28;20035;-83
2023/01/21 10:00:44;;;;;;;10.90;5.13;;;;;;;10.78;70.25;99133.34;5091807;28;20093;-83
2023/01/21 10:03:26;;;;;;;10.27;5.28;;;;;;;11.48;70.71;99248.81;5093116;28;20031;-80
2023/01/21 10:05:54;;;;;;;11.00;5.32;;;;;;;11.40;70.88;99244.50;5093112;28;20027;-82
2023/01/21 10:08:47;;;;;;;12.70;5.80;;;;;;;11.39;71.71;99239.38;5091316;28;20123;-81
2023/01/21 10:11:17;;;;;;;14.82;6.72;;;;;;;11.38;72.35;99238.56;5103171;28;20040;-81
2023/01/21 10:13:58;;;;;;;12.20;6.28;;;;;;;11.43;71.84;99241.47;5073096;28;20052;-84
2023/01/21 10:16:48;;;;;;;16.88;7.72;;;;;;;11.43;72.30;99244.09;5072992;28;20037;-83
2023/01/21 10:19:21;;;;;;;17.48;7.68;;;;;;;10.96;72.36;99152.22;5071393;28;20045;-82
2023/01/21 10:22:04;;;;;;;14.20;7.57;;;;;;;11.40;73.06;99220.69;5091103;28;20055;-83
2023/01/21 10:24:37;;;;;;;21.40;8.88;;;;;;;10.27;72.94;99019.97;5092703;28;20390;-84
2023/01/21 10:27:04;;;;;;;20.85;8.10;;;;;;;11.02;73.11;99177.03;5092976;28;20023;-82
2023/01/21 10:29:33;;;;;;;15.43;7.35;;;;;;;11.09;73.36;99184.03;5092806;28;20028;-82
2023/01/21 10:31:58;;;;;;;14.57;6.55;;;;;;;11.40;73.51;99223.34;5091681;28;20032;-81
2023/01/21 10:34:28;;;;;;;15.52;6.65;;;;;;;11.32;74.10;99218.19;5092144;28;20458;-83
2023/01/21 10:37:06;;;;;;;17.58;7.10;;;;;;;10.89;74.45;99153.97;5092916;28;20035;-83
2023/01/21 10:39:37;;;;;;;13.52;7.07;;;;;;;11.32;74.87;99218.19;5092751;28;20035;-82
2023/01/21 10:42:21;;;;;;;14.35;7.53;;;;;;;11.31;74.97;99226.31;5090572;28;20031;-84
2023/01/21 10:45:00;;;;;;;14.90;7.35;;;;;;;11.31;75.78;99231.59;5096269;28;20089;-83
2023/01/21 10:47:31;;;;;;;14.60;7.93;;;;;;;11.26;75.86;99234.81;5080701;28;20032;-81
2023/01/21 10:50:33;;;;;;;17.80;8.88;;;;;;;11.24;76.65;99234.19;5074840;28;20093;-83
2023/01/21 10:53:28;;;;;;;14.18;7.25;;;;;;;11.13;77.44;99235.47;5083125;28;20547;-83
2023/01/21 10:55:56;;;;;;;16.70;8.40;;;;;;;11.16;76.66;99236.94;5091605;28;20425;-82
2023/01/21 10:58:31;;;;;;;16.63;9.32;;;;;;;11.10;77.04;99230.56;5084127;28;20051;-81
2023/01/21 11:01:04;;;;;;;20.23;9.65;;;;;;;11.09;77.18;99233.41;5092160;28;20036;-81
2023/01/21 11:03:42;;;;;;;20.40;9.18;;;;;;;11.01;77.42;99204.47;5091618;28;20401;-83
2023/01/21 11:06:12;;;;;;;22.15;11.65;;;;;;;10.83;77.13;99165.28;5091097;28;20032;-82
2023/01/21 11:08:40;;;;;;;20.23;10.55;;;;;;;11.09;77.30;99207.78;5091421;28;20035;-81
2023/01/21 11:11:07;;;;;;;22.70;12.80;;;;;;;10.24;78.00;99053.81;5086580;28;20039;-83
2023/01/21 11:13:32;;;;;;;23.17;14.13;;;;;;;10.42;77.76;99085.91;5089538;28;20027;-81
2023/01/21 11:15:58;;;;;;;21.88;11.77;;;;;;;10.87;77.50;99153.34;5091739;28;20028;-82
2023/01/21 11:18:40;;;;;;;23.73;16.10;;;;;;;11.11;78.12;99192.56;5092143;28;20020;-83
2023/01/21 11:21:19;;;;;;;26.60;16.10;;;;;;;10.98;78.39;99189.00;5091692;28;20044;-80
2023/01/21 11:24:21;;;;;;;27.83;16.65;;;;;;;10.81;78.30;99160.19;5090536;28;20028;-82
2023/01/21 11:26:53;;;;;;;24.75;16.25;;;;;;;11.10;78.19;99208.63;5088637;28;20035;-82
2023/01/21 11:29:20;;;;;;;25.17;15.15;;;;;;;11.10;77.74;99209.44;5087673;28;20506;-83
2023/01/21 11:32:22;;;;;;;20.70;11.93;;;;;;;11.06;78.77;99188.88;5089323;28;20035;-83
2023/01/21 11:34:50;;;;;;;20.15;12.25;;;;;;;11.14;78.31;99199.31;5091453;28;20035;-84
2023/01/21 11:37:29;;;;;;;21.70;12.60;;;;;;;10.70;78.62;99126.38;5092791;28;20052;-84
2023/01/21 11:39:57;;;;;;;21.27;11.63;;;;;;;11.20;79.08;99197.75;5071445;28;20052;-82
2023/01/21 11:42:24;;;;;;;18.38;12.07;;;;;;;11.23;78.71;99186.81;5077033;28;20020;-84
2023/01/21 11:44:54;;;;;;;22.35;14.23;;;;;;;11.07;78.52;99158.78;5089520;28;20097;-83